Time;durP1;ratioP1;P1;durP2;ratioP2;P2;SDS_P1;SDS_P2;PMS_P1;PMS_P2;Temp;Humidity;BMP_temperature;BMP_pressure;BME280_temperature;BME280_humidity;BME280_pressure;Samples;Min_cycle;Max_cycle;Signal;HPM_P1;HPM_P2
2021/05/14 00:00:14;;;;;;;2.83;1.90;;;7.50;1.40;;;8.34;100.00;94612.44;646882;216;31547;-70
2021/05/14 00:02:55;;;;;;;2.83;2.62;;;7.50;1.40;;;8.42;100.00;94610.92;622367;226;32672;-71
2021/05/14 00:05:37;;;;;;;2.00;1.90;;;7.50;1.40;;;8.37;100.00;94616.23;644766;216;31557;-71
2021/05/14 00:08:19;;;;;;;2.30;1.80;;;7.40;1.40;;;8.33;100.00;94608.82;646595;216;31594;-72
2021/05/14 00:11:01;;;;;;;3.12;2.20;;;7.40;1.40;;;8.36;100.00;94607.10;644633;212;32087;-70
2021/05/14 00:13:42;;;;;;;3.30;2.50;;;7.40;1.40;;;8.37;100.00;94608.36;645459;212;32789;-71
2021/05/14 00:16:27;;;;;;;2.40;2.20;;;7.40;1.40;;;8.35;100.00;94604.22;646151;212;31566;-71
2021/05/14 00:19:09;;;;;;;2.20;2.00;;;7.40;1.40;;;8.23;100.00;94605.54;645724;216;31661;-70
2021/05/14 00:21:50;;;;;;;2.00;1.70;;;7.40;1.40;;;8.27;100.00;94609.14;647325;212;31717;-71
2021/05/14 00:24:35;;;;;;;1.90;1.80;;;7.40;1.40;;;8.29;100.00;94607.33;645999;216;31687;-71
2021/05/14 00:27:17;;;;;;;2.65;2.00;;;7.30;1.40;;;8.27;100.00;94605.00;649141;216;31565;-71
2021/05/14 00:29:58;;;;;;;3.00;2.10;;;7.30;1.40;;;8.15;100.00;94600.81;648051;216;31580;-71
2021/05/14 00:32:40;;;;;;;4.40;2.30;;;7.20;1.40;;;8.13;100.00;94604.36;651013;216;31566;-73
2021/05/14 00:35:51;;;;;;;1.80;1.70;;;7.20;1.40;;;8.11;100.00;94602.48;645685;216;31682;-71
2021/05/14 00:38:33;;;;;;;2.80;2.30;;;7.10;1.40;;;8.00;100.00;94600.66;646742;212;31942;-72
2021/05/14 00:41:15;;;;;;;2.30;2.10;;;7.10;1.40;;;8.04;100.00;94594.89;647551;216;31548;-72
2021/05/14 00:43:57;;;;;;;2.22;1.98;;;7.00;1.40;;;7.92;100.00;94601.97;618035;226;31975;-70
2021/05/14 00:46:38;;;;;;;2.92;2.12;;;7.00;1.40;;;7.86;100.00;94599.86;647837;216;32963;-71
2021/05/14 00:49:20;;;;;;;1.90;1.80;;;6.90;1.40;;;7.83;100.00;94601.38;646799;216;32166;-71
2021/05/14 00:52:02;;;;;;;2.35;2.15;;;6.90;1.40;;;7.78;100.00;94605.43;645431;216;31761;-71
2021/05/14 00:54:44;;;;;;;2.50;2.30;;;6.80;1.40;;;7.60;100.00;94601.88;646666;213;42277;-71
2021/05/14 00:57:29;;;;;;;2.62;2.20;;;6.80;1.40;;;7.51;100.00;94603.23;646577;213;31581;-71
2021/05/14 01:00:12;;;;;;;2.00;1.80;;;6.70;1.40;;;7.51;100.00;94605.23;648255;216;42171;-71
2021/05/14 01:02:54;;;;;;;2.30;2.10;;;6.70;1.40;;;7.48;100.00;94600.89;649288;212;42216;-71
2021/05/14 01:05:35;;;;;;;2.10;1.90;;;6.70;1.40;;;7.47;100.00;94605.23;644767;212;42201;-72
2021/05/14 01:08:17;;;;;;;3.60;2.00;;;6.60;1.40;;;7.39;100.00;94604.41;645481;212;42210;-71
2021/05/14 01:11:02;;;;;;;3.10;1.70;;;6.60;1.40;;;7.36;100.00;94606.84;648447;212;42764;-70
2021/05/14 01:13:44;;;;;;;1.92;1.83;;;6.60;1.40;;;7.31;100.00;94604.37;644078;216;42367;-72
2021/05/14 01:16:25;;;;;;;3.45;1.95;;;6.50;1.40;;;7.27;100.00;94605.13;647135;216;31550;-71
2021/05/14 01:19:07;;;;;;;2.00;1.60;;;6.50;1.40;;;7.24;100.00;94612.02;648257;216;31584;-74
2021/05/14 01:21:49;;;;;;;2.03;1.52;;;6.50;1.40;;;7.23;100.00;94611.98;620497;222;32637;-71
2021/05/14 01:24:31;;;;;;;1.70;1.60;;;6.60;1.40;;;7.19;100.00;94609.09;647614;216;32217;-71
2021/05/14 01:27:12;;;;;;;2.67;1.70;;;6.50;1.40;;;7.16;100.00;94607.40;646621;216;32196;-70
2021/05/14 01:29:54;;;;;;;2.30;1.60;;;6.50;1.40;;;7.15;100.00;94608.23;648944;212;31671;-72
2021/05/14 01:32:35;;;;;;;1.80;1.40;;;6.50;1.40;;;7.11;100.00;94610.73;649025;212;42267;-71
2021/05/14 01:35:54;;;;;;;2.55;1.50;;;6.40;1.40;;;7.01;100.00;94605.37;644379;212;31600;-70
2021/05/14 01:38:36;;;;;;;1.33;1.20;;;6.50;1.40;;;7.00;100.00;94605.99;644621;216;31582;-74
2021/05/14 01:41:21;;;;;;;1.85;1.65;;;6.40;1.40;;;6.91;100.00;94603.17;644276;216;31520;-73
2021/05/14 01:44:03;;;;;;;1.98;1.60;;;6.30;1.40;;;6.89;100.00;94602.95;645272;216;31590;-71
2021/05/14 01:46:44;;;;;;;1.70;1.60;;;6.20;1.40;;;6.83;100.00;94606.75;644831;212;42183;-72
2021/05/14 01:49:26;;;;;;;1.90;1.80;;;6.10;1.40;;;6.79;100.00;94608.78;647793;216;31576;-72
2021/05/14 01:52:11;;;;;;;2.00;1.75;;;6.00;1.40;;;6.63;100.00;94606.76;634607;217;42836;-71
2021/05/14 01:54:52;;;;;;;1.90;1.50;;;5.80;1.40;;;6.50;100.00;94606.62;647828;212;31709;-72
2021/05/14 01:57:34;;;;;;;2.67;1.85;;;5.70;1.40;;;6.41;100.00;94609.43;645424;216;42176;-72
2021/05/14 02:00:20;;;;;;;1.73;1.60;;;5.60;1.40;;;6.39;100.00;94605.55;648824;216;42770;-72
2021/05/14 02:03:01;;;;;;;2.17;1.98;;;5.50;1.40;;;6.33;100.00;94611.97;646514;216;31588;-71
2021/05/14 02:05:43;;;;;;;2.62;2.00;;;5.50;1.40;;;6.26;100.00;94609.65;617609;222;31988;-71
2021/05/14 02:08:25;;;;;;;2.47;2.20;;;5.40;1.40;;;6.18;100.00;94612.48;647657;216;31576;-72
2021/05/14 02:11:10;;;;;;;2.87;1.90;;;5.30;1.40;;;6.12;100.00;94610.73;648694;212;31918;-72
2021/05/14 02:13:51;;;;;;;3.70;1.98;;;5.20;1.40;;;6.08;100.00;94614.14;643506;216;31733;-71
2021/05/14 02:19:10;;;;;;;2.67;2.20;;;5.10;1.40;;;6.01;100.00;94610.78;645371;216;31595;-72
2021/05/14 02:21:52;;;;;;;2.15;1.85;;;5.10;1.40;;;5.92;100.00;94610.37;644627;212;31590;-71
2021/05/14 02:24:34;;;;;;;3.10;2.08;;;5.10;1.40;;;6.00;100.00;94613.12;649879;212;31592;-72
2021/05/14 02:27:18;;;;;;;3.70;2.40;;;5.10;1.40;;;5.93;100.00;94612.71;647612;216;31590;-72
2021/05/14 02:30:01;;;;;;;3.87;1.90;;;5.00;1.40;;;5.91;100.00;94614.41;647343;216;31555;-72
2021/05/14 02:32:42;;;;;;;2.10;1.62;;;4.90;1.40;;;5.94;100.00;94616.84;647406;212;32085;-72
2021/05/14 02:35:51;;;;;;;2.78;1.83;;;4.90;1.40;;;5.83;100.00;94615.77;647805;216;31844;-71
2021/05/14 02:38:36;;;;;;;1.95;1.85;;;4.90;1.40;;;5.73;100.00;94613.28;644684;213;31580;-72
2021/05/14 02:41:17;;;;;;;1.70;1.60;;;4.80;1.40;;;5.66;100.00;94613.51;650513;216;31569;-71
2021/05/14 02:43:59;;;;;;;2.00;1.90;;;4.80;1.40;;;5.63;100.00;94613.77;631047;222;31760;-73
2021/05/14 02:46:43;;;;;;;2.62;2.00;;;4.70;1.40;;;5.57;100.00;94618.02;647337;216;31561;-71
2021/05/14 02:49:25;;;;;;;2.28;2.08;;;4.60;1.40;;;5.53;100.00;94614.27;646043;216;31553;-72
2021/05/14 02:52:07;;;;;;;2.25;2.00;;;4.60;1.40;;;5.48;100.00;94613.28;645806;216;31666;-71
2021/05/14 02:54:49;;;;;;;2.17;1.95;;;4.50;1.40;;;5.52;100.00;94612.14;646653;212;31849;-72
2021/05/14 02:57:30;;;;;;;2.10;1.90;;;4.60;1.40;;;5.52;100.00;94611.55;648123;212;31693;-73
2021/05/14 03:00:13;;;;;;;3.58;2.45;;;4.50;1.40;;;5.49;100.00;94610.25;646938;212;31701;-73
2021/05/14 03:02:55;;;;;;;2.60;2.40;;;4.50;1.40;;;5.56;100.00;94614.56;623943;226;32109;-71
2021/05/14 03:05:39;;;;;;;4.30;2.20;;;4.50;1.40;;;5.54;100.00;94609.91;650053;212;31594;-71
2021/05/14 03:08:21;;;;;;;2.78;2.37;;;4.50;1.40;;;5.57;100.00;94610.02;644739;212;31557;-71
2021/05/14 03:11:03;;;;;;;2.20;2.00;;;4.70;1.40;;;5.51;100.00;94611.68;621064;226;32054;-73
2021/05/14 03:13:48;;;;;;;2.12;1.80;;;4.50;1.40;;;5.42;100.00;94609.45;641473;212;31727;-73
2021/05/14 03:16:29;;;;;;;2.80;1.92;;;4.50;1.40;;;5.38;100.00;94612.12;646027;216;31577;-72
2021/05/14 03:21:45;;;;;;;2.90;1.90;;;4.50;1.40;;;5.31;100.00;94614.38;644178;212;31850;-72
2021/05/14 03:24:27;;;;;;;2.25;1.90;;;4.40;1.40;;;5.24;100.00;94615.29;620842;222;32188;-72
2021/05/14 03:27:09;;;;;;;2.15;1.95;;;4.20;1.40;;;5.21;100.00;94615.02;647087;216;31593;-71
2021/05/14 03:29:50;;;;;;;2.72;2.12;;;4.20;1.40;;;5.21;100.00;94612.00;642818;217;31588;-72
2021/05/14 03:32:32;;;;;;;2.75;2.20;;;4.20;1.40;;;5.17;100.00;94617.25;648003;216;31521;-73
2021/05/14 03:35:51;;;;;;;2.80;2.30;;;4.30;1.40;;;5.12;100.00;94615.11;647566;216;31850;-72
2021/05/14 03:38:33;;;;;;;2.15;2.03;;;4.30;1.40;;;5.19;100.00;94610.45;649556;212;31958;-71
2021/05/14 03:41:30;;;;;;;2.40;1.80;;;4.50;1.40;;;5.26;100.00;94619.29;644854;216;31568;-73
2021/05/14 03:44:02;;;;;;;2.20;1.87;;;4.50;1.40;;;5.16;100.00;94620.21;648101;216;31627;-73
2021/05/14 03:49:18;;;;;;;2.20;2.00;;;4.40;1.40;;;5.24;100.00;94617.11;647314;216;31900;-73
2021/05/14 03:51:59;;;;;;;3.28;2.20;;;4.40;1.40;;;5.30;100.00;94618.05;649516;212;31605;-71
2021/05/14 03:54:41;;;;;;;3.20;1.90;;;4.40;1.40;;;5.28;100.00;94626.94;646720;212;31587;-72
2021/05/14 03:57:23;;;;;;;3.60;2.15;;;4.50;1.40;;;5.32;100.00;94617.31;643872;215;32168;-71
2021/05/14 04:00:05;;;;;;;2.03;1.93;;;4.60;1.40;;;5.41;100.00;94619.63;646553;216;32482;-72
2021/05/14 04:02:52;;;;;;;2.10;1.70;;;4.80;1.40;;;5.52;100.00;94613.75;646024;216;31565;-73
2021/05/14 04:05:34;;;;;;;4.78;2.10;;;5.00;1.40;;;5.56;100.00;94611.86;647332;216;31568;-73
2021/05/14 04:08:18;;;;;;;2.05;1.85;;;4.90;1.40;;;5.52;100.00;94614.28;646948;216;31884;-71
2021/05/14 04:11:17;;;;;;;3.05;2.12;;;4.80;1.40;;;5.50;100.00;94616.16;622963;222;32008;-72
2021/05/14 04:16:31;;;;;;;1.80;1.70;;;4.60;1.40;;;5.49;100.00;94613.43;632874;222;31817;-73
2021/05/14 04:19:13;;;;;;;2.00;1.80;;;4.40;1.40;;;5.40;100.00;94615.02;647365;216;31568;-72
2021/05/14 04:21:55;;;;;;;2.65;1.95;;;4.20;1.40;;;5.23;100.00;94615.19;648397;212;31746;-72
2021/05/14 04:24:36;;;;;;;2.37;1.80;;;4.30;1.40;;;5.21;100.00;94616.30;647963;212;31577;-74
2021/05/14 04:27:18;;;;;;;2.00;1.80;;;4.40;1.40;;;5.23;100.00;94613.20;646303;216;31845;-72
2021/05/14 04:30:00;;;;;;;2.60;2.10;;;4.50;1.40;;;5.32;100.00;94618.94;645222;216;31700;-73
2021/05/14 04:32:41;;;;;;;3.35;2.30;;;4.40;1.40;;;5.30;100.00;94616.91;652094;213;31696;-73
2021/05/14 04:35:53;;;;;;;;;;;4.40;1.40;;;5.39;100.00;94611.94;654736;212;24720;-72
2021/05/14 04:38:34;;;;;;;;;;;4.40;1.40;;;5.38;100.00;94614.00;655198;212;24800;-71
2021/05/14 04:41:15;;;;;;;;;;;4.40;1.40;;;5.51;100.00;94613.88;654777;213;24807;-72
2021/05/14 04:43:57;;;;;;;;;;;4.70;1.40;;;5.60;100.00;94615.80;655922;216;24861;-72
2021/05/14 04:46:38;;;;;;;;;;;4.90;1.40;;;5.69;100.00;94616.41;654245;216;25276;-71
2021/05/14 04:49:19;;;;;;;;;;;5.10;1.40;;;5.79;100.00;94616.32;652623;212;24812;-72
2021/05/14 04:52:01;;;;;;;;;;;5.40;1.40;;;5.97;100.00;94615.59;653906;216;24832;-74
2021/05/14 04:54:42;;;;;;;;;;;5.60;1.40;;;6.10;100.00;94617.30;652942;212;24820;-73
2021/05/14 04:57:23;;;;;;;;;;;5.80;1.40;;;6.29;100.00;94614.80;654252;212;24749;-73
2021/05/14 05:00:06;;;;;;;;;;;6.00;1.40;;;6.45;100.00;94614.31;652190;216;25275;-72
2021/05/14 05:02:48;;;;;;;;;;;6.20;1.40;;;6.63;100.00;94617.58;648986;216;24718;-73
2021/05/14 05:05:30;;;;;;;;;;;6.50;1.40;;;6.81;100.00;94613.16;656154;212;25323;-74
2021/05/14 05:08:11;;;;;;;;;;;6.60;1.40;;;6.95;100.00;94616.98;651646;216;25966;-72
2021/05/14 05:10:53;;;;;;;;;;;6.70;1.40;;;7.05;100.00;94618.70;654737;212;24729;-74
2021/05/14 05:13:34;;;;;;;;;;;6.70;1.40;;;7.20;100.00;94618.78;656674;213;24793;-72
2021/05/14 05:16:15;;;;;;;;;;;6.90;1.40;;;7.33;100.00;94620.89;652050;212;24827;-73
2021/05/14 05:18:57;;;;;;;;;;;7.00;1.40;;;7.46;100.00;94627.14;656848;216;24835;-73
2021/05/14 05:21:38;;;;;;;;;;;7.00;1.40;;;7.56;100.00;94619.84;653824;216;24900;-72
2021/05/14 05:24:22;;;;;;;;;;;7.20;1.40;;;7.72;100.00;94617.28;652655;216;24720;-74
2021/05/14 05:27:04;;;;;;;;;;;7.40;1.40;;;7.82;100.00;94621.44;654020;216;24813;-73
2021/05/14 05:29:45;;;;;;;;;;;7.40;1.40;;;7.95;100.00;94627.20;654303;216;24808;-71
2021/05/14 05:32:27;;;;;;;;;;;7.50;1.40;;;8.14;100.00;94625.98;651200;216;24823;-72
2021/05/14 05:35:51;;;;;;;1.70;1.50;;;7.90;1.40;;;8.27;100.00;94625.46;618722;222;31996;-73
2021/05/14 05:38:33;;;;;;;1.60;1.30;;;7.90;1.40;;;8.42;100.00;94628.75;648503;216;31587;-73
2021/05/14 05:41:16;;;;;;;1.90;1.48;;;8.10;1.40;;;8.58;100.00;94629.10;620471;226;42565;-73
2021/05/14 05:43:56;;;;;;;1.60;1.30;;;8.30;1.40;;;8.72;100.00;94631.04;645474;212;31797;-72
2021/05/14 05:46:38;;;;;;;1.90;1.23;;;8.30;1.40;;;8.93;100.00;94627.57;647175;212;31706;-73
2021/05/14 05:49:21;;;;;;;1.40;1.13;;;8.60;1.40;;;9.19;100.00;94633.28;645387;212;31627;-74
2021/05/14 05:52:01;;;;;;;1.75;0.98;;;8.90;1.40;;;9.32;100.00;94631.76;634282;217;31691;-73
2021/05/14 05:54:43;;;;;;;1.07;0.80;;;9.00;1.40;;;9.49;100.00;94635.37;649190;212;31705;-73
2021/05/14 05:57:25;;;;;;;3.00;0.90;;;9.20;1.40;;;9.71;97.21;94632.88;621489;222;31835;-72
2021/05/14 06:00:09;;;;;;;2.30;0.80;;;9.40;1.40;;;9.90;93.75;94634.73;646963;216;31553;-72
2021/05/14 06:02:56;;;;;;;1.30;0.80;;;9.60;1.40;;;10.10;91.48;94642.36;646359;212;31806;-75
2021/05/14 06:05:40;;;;;;;1.50;0.73;;;9.60;1.40;;;10.27;90.88;94640.59;643889;215;31602;-72
2021/05/14 06:08:24;;;;;;;0.77;0.70;;;9.80;1.40;;;10.35;89.42;94632.73;646889;216;31603;-72
2021/05/14 06:11:04;;;;;;;1.90;0.70;;;9.80;1.40;;;10.59;94.49;94637.82;644869;216;32105;-72
2021/05/14 06:13:46;;;;;;;1.57;0.80;;;9.90;1.40;;;10.58;94.59;94638.32;647232;216;31796;-73
2021/05/14 06:16:28;;;;;;;2.30;0.80;;;10.00;1.40;;;10.76;90.51;94643.02;645734;212;42179;-72
2021/05/14 06:19:26;;;;;;;1.30;0.80;;;10.20;1.40;;;10.68;86.81;94645.25;651107;216;31498;-75
2021/05/14 06:22:07;;;;;;;0.80;0.60;;;10.10;1.40;;;10.73;89.37;94648.50;647508;216;31507;-72
2021/05/14 06:24:48;;;;;;;1.00;0.70;;;10.10;1.40;;;10.84;88.93;94648.40;648148;212;31509;-73
2021/05/14 06:27:30;;;;;;;0.90;0.70;;;10.30;1.40;;;11.00;88.34;94654.28;620728;226;31935;-73
2021/05/14 06:30:14;;;;;;;1.63;0.77;;;10.40;1.40;;;10.90;88.21;94658.96;620396;226;32387;-72
2021/05/14 06:32:56;;;;;;;1.10;0.80;;;10.30;1.40;;;10.80;87.22;94664.11;629513;217;31656;-71
2021/05/14 06:35:51;;;;;;;1.60;0.70;;;10.30;1.40;;;11.06;87.86;94659.46;648761;212;31688;-72
2021/05/14 06:38:33;;;;;;;2.30;0.70;;;10.40;1.40;;;11.08;86.04;94661.00;645982;213;42144;-72
2021/05/14 06:41:18;;;;;;;1.70;0.90;;;10.40;1.40;;;11.21;85.95;94660.84;645641;213;32210;-73
2021/05/14 06:44:01;;;;;;;1.30;1.00;;;10.50;1.40;;;11.42;87.35;94663.72;618616;222;43124;-74
2021/05/14 06:46:44;;;;;;;1.70;1.10;;;10.70;1.40;;;11.67;85.31;94664.66;621254;222;42494;-72
2021/05/14 06:49:29;;;;;;;0.70;0.60;;;10.90;1.40;;;11.83;83.92;94663.48;645389;212;31897;-73
2021/05/14 06:52:13;;;;;;;1.27;0.80;;;11.20;1.40;;;11.71;84.14;94660.52;616912;222;31986;-72
2021/05/14 06:54:56;;;;;;;1.00;0.60;;;11.10;1.40;;;11.80;82.57;94665.19;647063;216;31515;-74
2021/05/14 06:57:48;;;;;;;0.70;0.60;;;11.10;1.40;;;12.00;81.36;94668.02;616177;224;31829;-74
2021/05/14 07:00:30;;;;;;;0.70;0.60;;;11.20;1.40;;;11.78;81.38;94668.95;647597;216;31561;-73
2021/05/14 07:03:11;;;;;;;1.57;0.70;;;11.00;1.40;;;12.01;81.20;94677.65;645466;212;31691;-72
2021/05/14 07:05:55;;;;;;;1.50;1.00;;;11.10;1.40;;;12.04;81.65;94675.03;644508;216;31502;-74
2021/05/14 07:11:20;;;;;;;0.97;0.70;;;10.90;1.40;;;11.69;83.34;94676.14;647654;216;31501;-72
2021/05/14 07:14:02;;;;;;;0.90;0.67;;;10.80;1.40;;;11.58;84.62;94672.51;617335;226;32003;-72
2021/05/14 07:16:44;;;;;;;2.60;1.00;;;10.60;1.40;;;11.48;86.07;94676.84;618242;226;31940;-72
2021/05/14 07:19:27;;;;;;;2.50;1.00;;;10.60;1.40;;;11.52;85.72;94673.48;646884;212;31489;-71
2021/05/14 07:22:08;;;;;;;2.13;1.00;;;10.70;1.40;;;11.52;85.37;94676.45;646940;212;42204;-73
2021/05/14 07:24:49;;;;;;;0.80;0.80;;;10.80;1.40;;;11.49;84.46;94677.34;645668;216;31628;-72
2021/05/14 07:27:31;;;;;;;0.70;0.60;;;10.70;1.40;;;11.62;83.60;94674.85;620305;222;32175;-71
2021/05/14 07:30:14;;;;;;;0.98;0.70;;;10.90;1.40;;;11.78;81.43;94673.08;645557;212;31680;-72
2021/05/14 07:32:57;;;;;;;1.03;0.50;;;11.20;1.40;;;11.74;77.77;94678.64;620582;226;31872;-71
2021/05/14 07:35:51;;;;;;;1.70;0.62;;;11.10;1.40;;;11.99;81.67;94678.80;644007;212;31545;-70
2021/05/14 07:38:33;;;;;;;1.30;0.80;;;11.40;1.40;;;11.91;81.40;94671.08;646405;212;31522;-72
2021/05/14 07:41:15;;;;;;;2.10;0.80;;;11.20;1.40;;;12.01;80.96;94671.98;645540;216;31549;-72
2021/05/14 07:43:57;;;;;;;1.90;0.70;;;11.10;1.40;;;12.24;82.04;94674.02;646019;213;31544;-71
2021/05/14 07:46:38;;;;;;;0.90;0.53;;;11.20;1.40;;;12.57;82.49;94668.69;645283;216;31528;-71
2021/05/14 07:49:21;;;;;;;1.67;0.80;;;11.50;1.40;;;12.60;78.59;94672.63;645958;212;31635;-72
2021/05/14 07:52:02;;;;;;;2.17;0.70;;;11.50;1.40;;;12.79;79.36;94667.11;646569;216;31533;-72
2021/05/14 07:54:44;;;;;;;0.90;0.80;;;11.90;1.40;;;12.71;76.65;94666.91;645830;212;31643;-73
2021/05/14 07:57:29;;;;;;;1.20;0.70;;;11.70;1.40;;;12.92;79.66;94666.20;647277;212;42155;-72
2021/05/14 08:00:11;;;;;;;1.30;0.80;;;12.00;1.40;;;12.85;74.49;94666.14;646122;213;42276;-72
2021/05/14 08:02:53;;;;;;;1.30;0.60;;;12.00;1.40;;;12.97;72.95;94666.79;619490;222;31821;-72
2021/05/14 08:05:35;;;;;;;1.90;0.50;;;12.10;1.40;;;13.03;73.78;94668.42;648607;216;42524;-72
2021/05/14 08:08:20;;;;;;;1.00;0.67;;;12.10;1.40;;;12.89;74.29;94666.78;646986;212;31620;-72
2021/05/14 08:11:01;;;;;;;1.30;0.60;;;11.90;1.40;;;12.82;70.24;94669.75;648820;212;31645;-72
2021/05/14 08:13:44;;;;;;;1.20;0.80;;;11.90;1.40;;;13.30;73.15;94667.13;647705;212;31489;-72
2021/05/14 08:16:25;;;;;;;1.10;0.65;;;12.40;1.40;;;13.51;71.11;94666.14;647300;212;32221;-71
2021/05/14 08:19:17;;;;;;;1.30;0.70;;;12.50;1.40;;;13.42;71.57;94666.81;648179;212;32024;-73
2021/05/14 08:21:59;;;;;;;1.40;0.50;;;12.30;1.40;;;13.26;67.98;94667.22;648631;216;31632;-74
2021/05/14 08:24:44;;;;;;;1.57;0.57;;;12.40;1.40;;;13.36;66.57;94669.72;620437;222;31860;-71
2021/05/14 08:27:26;;;;;;;0.70;0.57;;;12.60;1.40;;;13.67;66.73;94665.06;648128;216;32115;-72
2021/05/14 08:30:11;;;;;;;1.10;0.50;;;12.90;1.40;;;14.04;65.12;94659.50;646301;212;31503;-72
2021/05/14 08:32:54;;;;;;;0.80;0.68;;;13.10;1.40;;;13.63;65.49;94662.95;619760;222;31838;-71
2021/05/14 08:35:51;;;;;;;0.82;0.62;;;12.90;1.40;;;13.63;65.18;94659.72;619795;226;32021;-72
2021/05/14 08:38:35;;;;;;;2.30;0.70;;;12.80;1.40;;;13.81;65.88;94663.71;646458;212;31507;-72
2021/05/14 08:41:19;;;;;;;1.08;0.52;;;13.10;1.40;;;14.29;64.81;94659.45;648855;212;31553;-71
2021/05/14 08:43:59;;;;;;;0.80;0.50;;;13.40;1.40;;;14.19;60.45;94662.84;645730;212;31521;-72
2021/05/14 08:46:41;;;;;;;1.20;0.50;;;13.20;1.40;;;14.55;63.09;94659.97;620747;222;33734;-72
2021/05/14 08:49:22;;;;;;;0.90;0.50;;;13.80;1.40;;;14.51;57.89;94660.48;646410;212;31557;-72
2021/05/14 08:52:07;;;;;;;1.25;0.40;;;14.00;1.40;;;14.60;59.28;94654.87;646935;212;31493;-71
2021/05/14 08:54:47;;;;;;;1.40;0.60;;;14.00;1.40;;;14.60;60.98;94657.77;648759;216;36220;-71
2021/05/14 08:57:28;;;;;;;0.90;0.50;;;13.80;1.40;;;14.32;61.51;94662.60;645431;212;31749;-72
2021/05/14 09:00:11;;;;;;;1.60;0.50;;;13.10;1.40;;;14.36;57.59;94661.35;646498;212;31475;-72
2021/05/14 09:02:53;;;;;;;1.17;0.50;;;13.70;1.40;;;15.16;59.24;94658.68;646379;212;35337;-72
2021/05/14 09:05:34;;;;;;;1.20;0.57;;;14.40;1.40;;;14.59;58.17;94659.16;645635;216;31573;-72
2021/05/14 09:10:56;;;;;;;1.77;0.60;;;13.70;1.40;;;15.25;54.31;94658.59;616904;222;31884;-74
2021/05/14 09:13:38;;;;;;;1.30;0.50;;;14.50;1.40;;;16.34;54.83;94653.17;618896;226;42458;-72
2021/05/14 09:16:20;;;;;;;0.60;0.50;;;16.30;1.40;;;17.85;50.16;94647.95;646853;216;42137;-71
2021/05/14 09:19:01;;;;;;;1.40;0.60;;;18.00;1.40;;;19.38;47.99;94646.41;645958;212;31549;-73
2021/05/14 09:21:43;;;;;;;0.62;0.40;;;19.50;1.40;;;20.78;46.02;94644.98;646737;212;31718;-73
2021/05/14 09:24:34;;;;;;;1.62;0.52;;;20.60;1.40;;;21.79;44.27;94640.20;646320;213;31524;-73
2021/05/14 09:27:29;;;;;;;0.73;0.60;;;19.80;1.40;;;20.05;42.64;94646.23;646384;212;31533;-72
2021/05/14 09:30:13;;;;;;;0.70;0.50;;;17.10;1.40;;;21.17;47.28;94647.85;646487;216;31560;-73
2021/05/14 09:32:55;;;;;;;1.50;0.50;;;17.60;1.40;;;19.32;50.63;94643.98;646669;212;31500;-72
2021/05/14 09:35:51;;;;;;;0.70;0.50;;;15.90;1.40;;;18.78;51.13;94644.98;646295;212;31504;-72
2021/05/14 09:38:42;;;;;;;0.80;0.60;;;15.50;1.40;;;17.57;51.18;94643.30;619404;222;31815;-71
2021/05/14 09:41:45;;;;;;;1.58;0.60;;;14.90;1.40;;;17.36;50.49;94641.22;646517;212;31635;-73
2021/05/14 09:44:30;;;;;;;0.80;0.60;;;14.90;1.40;;;18.71;51.01;94638.87;646888;216;42792;-73
2021/05/14 09:47:12;;;;;;;2.15;0.50;;;17.80;1.40;;;18.83;48.37;94642.44;647489;212;31522;-72
2021/05/14 09:49:54;;;;;;;1.50;0.50;;;16.50;1.40;;;19.75;46.62;94639.81;646664;212;31566;-72
2021/05/14 09:52:36;;;;;;;0.70;0.60;;;17.90;1.40;;;20.47;44.96;94637.73;645971;216;31629;-75
2021/05/14 09:55:23;;;;;;;0.70;0.40;;;17.70;1.40;;;21.54;44.27;94633.63;617714;222;32053;-71
2021/05/14 09:58:22;;;;;;;1.40;0.47;;;19.80;1.40;;;21.42;41.83;94637.52;619892;222;31902;-72
2021/05/14 10:01:01;;;;;;;1.40;0.70;;;17.80;1.40;;;19.18;46.10;94637.69;646929;212;32078;-71
2021/05/14 10:03:43;;;;;;;1.00;0.50;;;16.00;1.40;;;19.32;45.00;94639.78;646722;212;31628;-72
2021/05/14 10:06:24;;;;;;;0.85;0.55;;;15.80;1.40;;;18.22;47.93;94635.45;646701;216;31511;-72
2021/05/14 10:09:09;;;;;;;1.60;0.70;;;15.80;1.40;;;17.15;48.66;94638.02;645175;212;31473;-71
2021/05/14 10:11:56;;;;;;;0.95;0.50;;;14.90;1.40;;;16.78;50.81;94636.91;646761;216;32074;-73
2021/05/14 10:14:44;;;;;;;0.90;0.60;;;14.70;1.40;;;16.62;51.69;94639.69;638504;216;33625;-71
2021/05/14 10:17:26;;;;;;;0.60;0.40;;;14.50;1.40;;;16.26;50.20;94638.47;620577;222;31847;-72
2021/05/14 10:20:12;;;;;;;1.40;0.50;;;14.40;1.40;;;16.68;52.30;94640.95;618668;223;31807;-72
2021/05/14 10:22:54;;;;;;;2.00;0.70;;;14.70;1.40;;;16.59;51.63;94636.83;645707;212;32758;-72
2021/05/14 10:28:21;;;;;;;1.30;0.60;;;15.30;1.40;;;19.25;49.00;94632.38;646403;216;31649;-71
2021/05/14 10:31:19;;;;;;;0.98;0.55;;;18.20;1.40;;;21.98;43.18;94626.98;645150;216;31519;-72
2021/05/14 10:35:51;;;;;;;2.07;0.70;;;18.80;1.40;;;-143.44;100.00;122422.95;646709;212;31606;-71
2021/05/14 10:38:35;;;;;;;1.10;0.50;;;18.10;1.40;;;;;;647311;212;31613;-72
2021/05/14 10:41:24;;;;;;;0.70;0.50;;;16.60;1.40;;;;;;645394;216;42952;-71
2021/05/14 10:44:05;;;;;;;1.50;0.50;;;16.20;1.40;;;;;;645873;212;33440;-71
2021/05/14 10:46:46;;;;;;;0.70;0.40;;;16.00;1.40;;;;;;647023;212;31482;-71
2021/05/14 10:49:27;;;;;;;0.60;0.40;;;15.50;1.40;;;;;;648042;212;31548;-72
2021/05/14 10:52:08;;;;;;;0.60;0.43;;;15.40;1.40;;;;;;646075;212;31522;-72
2021/05/14 10:54:49;;;;;;;0.80;0.50;;;15.20;1.40;;;;;;646602;216;31493;-71
2021/05/14 10:57:47;;;;;;;1.20;0.40;;;17.80;1.40;;;;;;646106;216;31479;-73
2021/05/14 11:00:32;;;;;;;0.80;0.40;;;17.40;1.40;;;;;;646728;216;31485;-72
2021/05/14 11:03:15;;;;;;;0.60;0.40;;;15.80;1.40;;;;;;647187;216;31617;-71
2021/05/14 11:06:08;;;;;;;1.20;0.60;;;17.10;1.40;;;;;;618653;222;32218;-71
2021/05/14 11:08:57;;;;;;;0.60;0.40;;;19.30;1.40;;;;;;618628;222;31826;-71
2021/05/14 11:11:50;;;;;;;0.70;0.50;;;18.50;1.40;;;;;;645760;212;31514;-71
2021/05/14 11:14:47;;;;;;;1.10;0.50;;;17.30;1.40;;;;;;640368;212;32067;-72
2021/05/14 11:17:28;;;;;;;0.85;0.50;;;16.50;1.40;;;;;;643108;217;31583;-71
2021/05/14 11:20:21;;;;;;;0.90;0.50;;;15.70;1.40;;;;;;646871;212;31526;-70
2021/05/14 11:25:37;;;;;;;0.75;0.40;;;15.70;1.40;;;;;;646769;213;31487;-71
2021/05/14 11:28:21;;;;;;;0.60;0.40;;;16.30;1.40;;;;;;646134;216;31877;-71
2021/05/14 11:31:02;;;;;;;0.70;0.50;;;16.80;1.40;;;;;;645836;212;31641;-71
2021/05/14 11:35:51;;;;;;;0.63;0.50;;;17.00;1.40;;;19.96;42.45;94616.91;646527;212;42114;-71
2021/05/14 11:38:33;;;;;;;0.80;0.52;;;16.70;1.40;;;20.73;43.69;94614.97;646556;212;31528;-72
2021/05/14 11:41:27;;;;;;;0.75;0.40;;;16.80;1.40;;;20.99;43.88;94618.86;644983;212;32302;-71
2021/05/14 11:44:09;;;;;;;0.93;0.50;;;16.90;1.40;;;20.14;45.30;94622.27;646932;212;31466;-72
2021/05/14 11:46:57;;;;;;;0.60;0.50;;;16.80;1.40;;;19.48;43.99;94617.48;647089;216;31509;-71
2021/05/14 11:49:39;;;;;;;1.00;0.40;;;16.60;1.40;;;18.61;43.85;94612.55;646962;216;31469;-71
2021/05/14 11:52:33;;;;;;;0.80;0.40;;;15.80;1.40;;;19.46;44.08;94613.32;645482;212;31489;-71
2021/05/14 11:55:15;;;;;;;0.80;0.40;;;16.10;1.40;;;19.71;43.00;94616.14;642443;216;31961;-70
2021/05/14 11:57:58;;;;;;;1.50;0.50;;;16.60;1.40;;;18.66;43.32;94620.76;646181;212;31452;-72
2021/05/14 12:00:41;;;;;;;1.20;0.40;;;15.80;1.40;;;18.76;44.22;94615.48;619989;222;31833;-71
2021/05/14 12:03:23;;;;;;;1.70;0.45;;;16.00;1.40;;;19.02;44.32;94613.20;645271;216;31507;-70
2021/05/14 12:06:05;;;;;;;0.90;0.30;;;16.20;1.40;;;18.24;46.34;94614.52;646561;216;31660;-72
2021/05/14 12:08:47;;;;;;;0.55;0.40;;;16.10;1.40;;;19.56;43.07;94613.91;646345;212;31472;-71
2021/05/14 12:11:35;;;;;;;0.60;0.40;;;17.20;1.40;;;20.45;40.03;94609.16;615972;224;32365;-73
2021/05/14 12:14:24;;;;;;;0.70;0.40;;;17.40;1.40;;;21.05;41.95;94604.20;641196;213;31742;-72
2021/05/14 12:17:10;;;;;;;0.70;0.30;;;17.40;1.40;;;21.37;39.84;94600.98;648231;216;42202;-72
2021/05/14 12:19:50;;;;;;;0.65;0.40;;;18.00;1.40;;;22.26;39.32;94601.27;645815;212;31513;-72